Latest Weather Observations for Avalon

IDV60801

Issued at 8:02 pm EST Tuesday 1 September 2015 (issued every 30 minutes, with the page automatically refreshed every 10 minutes)

About weather observations | Map of weather stations | Latest weather observations for VIC | Other Formats
Station Details ID: 087113 Name: AVALON AIRPORT Lat: -38.03 Lon: 144.48 Height: 10.6 m
Data from the previous 72 hours. | See also: Recent months at Avalon
Date/Time
EST
Temp
°C
App
Temp
°C
Dew
Point
Rel
Hum
%
Delta-T
°C
Wind Press
QNH
hPa
Press
MSL
hPa
Rain
since 9 am
mm
Dir
 
Spd
km/h
Gust
km/h
Spd
kts
Gust
kts
01/08:00pm 7.4 4.9 4.5 82 1.3 NE 7 9 4 5 1013.9 1013.9 0.0
01/07:30pm 8.2 5.8 5.1 81 1.4 NNE 7 9 4 5 1013.7 1013.7 0.0
01/07:00pm 8.6 5.7 4.8 77 1.7 NNE 9 11 5 6 1013.6 1013.6 0.0
01/06:30pm 9.4 6.6 5.0 74 2.0 NE 9 9 5 5 1013.5 1013.5 0.0
01/06:00pm 10.4 7.3 5.6 72 2.2 ENE 11 15 6 8 1013.2 1013.2 0.0
01/05:30pm 11.1 7.7 6.0 71 2.4 E 13 15 7 8 1013.1 1013.1 0.0
01/05:00pm 12.0 8.1 5.2 63 3.1 E 15 19 8 10 1012.8 1012.8 0.0
01/04:30pm 12.5 8.1 4.5 58 3.6 ESE 17 20 9 11 1013.0 1013.0 0.0
01/04:00pm 13.1 9.1 4.8 57 3.8 ESE 15 17 8 9 1013.4 1013.4 0.0
01/03:30pm 12.7 8.3 4.7 58 3.7 SE 17 20 9 11 1013.7 1013.7 0.0
01/03:00pm 12.9 8.7 5.6 61 3.4 ESE 17 20 9 11 1014.0 1014.0 0.0
01/02:30pm 12.7 8.4 5.1 60 3.5 ESE 17 24 9 13 1014.3 1014.3 0.0
01/02:00pm 12.4 8.0 4.9 60 3.4 ESE 17 20 9 11 1014.3 1014.3 0.0
01/01:30pm 11.9 6.1 4.4 60 3.4 SE 24 30 13 16 1014.6 1014.6 0.0
01/01:00pm 12.9 8.1 5.6 61 3.4 ESE 20 26 11 14 1015.2 1015.2 0.0
01/12:30pm 12.4 9.5 4.4 58 3.6 SE 9 20 5 11 1015.9 1015.9 0.0
01/12:00pm 13.2 9.9 2.7 49 4.6 N 9 13 5 7 1016.5 1016.5 0.0
01/11:30am 13.0 10.0 3.9 54 4.1 NNE 9 15 5 8 1017.1 1017.1 0.0
01/11:00am 12.3 9.2 3.5 55 3.9 NNE 9 17 5 9 1017.3 1017.3 0.0
01/10:30am 11.9 8.4 3.7 57 3.7 NNE 11 17 6 9 1017.3 1017.3 0.0
01/10:00am 11.4 8.9 3.9 60 3.3 NE 6 11 3 6 1017.4 1017.4 0.0
01/09:30am 10.2 8.6 4.4 67 2.6 NW 2 6 1 3 1017.5 1017.5 0.0
01/09:00am 7.8 5.1 3.8 76 1.7 WNW 7 11 4 6 1017.5 1017.5 0.0
01/08:30am 5.6 3.0 3.3 85 1.0 W 6 9 3 5 1017.3 1017.3 0.0
01/08:00am 3.3 0.5 2.0 91 0.5 WNW 6 7 3 4 1017.4 1017.4 0.0
01/07:30am 1.7 -1.5 0.7 93 0.4 WNW 7 9 4 5 1017.3 1017.3 0.0
01/07:00am 0.5 -3.6 -0.5 93 0.4 NW 11 13 6 7 1017.2 1017.2 0.0
01/06:30am 0.4 -4.5 -0.7 92 0.4 NNW 15 15 8 8 1016.8 1016.8 0.0
01/06:00am 1.6 -2.4 0.3 91 0.5 N 11 13 6 7 1016.6 1016.6 0.0
01/05:30am 3.0 -0.5 1.2 88 0.7 NNW 9 11 5 6 1016.8 1016.8 0.0
01/05:00am 4.2 0.8 1.6 83 1.0 NW 9 11 5 6 1016.8 1016.8 0.0
01/04:30am 5.9 4.2 2.0 76 1.6 CALM 0 0 0 0 1017.0 1017.0 0.0
01/04:00am 6.8 4.3 1.7 70 2.1 SSW 4 7 2 4 1017.1 1017.1 0.0
01/03:30am 7.9 5.0 2.8 70 2.1 NW 7 9 4 5 1017.2 1017.2 0.0
01/03:00am 8.6 5.8 3.0 68 2.4 W 7 11 4 6 1017.6 1017.6 0.0
01/02:30am 8.7 6.8 3.1 68 2.4 NNW 2 9 1 5 1018.0 1018.0 0.0
01/02:00am 9.2 7.3 3.0 65 2.6 SW 2 9 1 5 1018.2 1018.2 0.0
01/01:30am 8.8 6.9 3.0 67 2.5 NW 2 6 1 3 1018.6 1018.6 0.0
01/01:00am 8.3 5.6 3.8 73 1.9 N 7 9 4 5 1018.8 1018.8 0.0
01/12:30am 8.7 7.3 3.5 70 2.2 CALM 0 0 0 0 1018.9 1018.9 0.0
01/12:00am 9.2 7.7 3.2 66 2.6 CALM 0 0 0 0 1018.9 1018.9 0.0
 
Date/Time
EST
Temp
°C
App
Temp
°C
Dew
Point
Rel
Hum
%
Delta-T
°C
Wind Press
QNH
hPa
Press
MSL
hPa
Rain
since 9 am
mm
Dir
 
Spd
km/h
Gust
km/h
Spd
kts
Gust
kts
31/11:30pm 9.4 7.2 3.2 65 2.7 SW 4 17 2 9 1019.0 1019.0 0.0
31/11:00pm 9.7 7.4 3.0 63 2.9 WNW 4 9 2 5 1019.2 1019.2 0.0
31/10:30pm 8.2 6.9 4.0 75 1.8 CALM 0 0 0 0 1019.4 1019.4 0.0
31/10:00pm 7.9 6.6 4.3 78 1.6 CALM 0 0 0 0 1019.3 1019.3 0.0
31/09:30pm 8.2 6.2 4.6 78 1.6 SSE 4 7 2 4 1019.4 1019.4 0.0
31/09:00pm 8.2 5.8 5.1 81 1.4 S 7 9 4 5 1019.5 1019.5 0.0
31/08:30pm 6.8 3.8 4.1 83 1.2 S 9 11 5 6 1019.4 1019.4 0.0
31/08:00pm 6.4 2.9 3.6 82 1.2 S 11 11 6 6 1019.4 1019.4 0.0
31/07:30pm 5.7 2.0 2.4 79 1.3 S 11 13 6 7 1019.2 1019.2 0.0
31/07:00pm 6.4 2.8 2.7 77 1.5 SSE 11 11 6 6 1019.0 1019.0 0.0
31/06:30pm 7.3 3.7 3.0 74 1.8 SSE 11 13 6 7 1018.9 1018.9 0.0
31/06:00pm 7.9 4.3 3.0 71 2.1 S 11 11 6 6 1019.0 1019.0 0.0
31/05:30pm 9.4 5.5 3.6 67 2.5 S 13 15 7 8 1019.1 1019.1 0.0
31/05:00pm 11.1 6.4 3.4 59 3.4 S 17 20 9 11 1019.1 1019.1 0.0
31/04:30pm 11.5 7.2 3.0 56 3.7 S 15 20 8 11 1019.1 1019.1 0.0
31/04:00pm 11.9 7.0 3.9 58 3.6 SSW 19 24 10 13 1019.1 1019.1 0.0
31/03:30pm 12.1 8.1 3.1 54 4.0 S 13 19 7 10 1019.1 1019.1 0.0
31/03:00pm 12.1 8.2 3.6 56 3.8 SSW 13 19 7 10 1019.2 1019.2 0.0
31/02:30pm 12.4 8.2 3.9 56 3.8 S 15 19 8 10 1019.3 1019.3 0.0
31/02:00pm 12.5 8.3 3.7 55 3.9 SSW 15 20 8 11 1019.4 1019.4 0.0
31/01:30pm 12.3 9.1 3.3 54 4.0 SW 9 13 5 7 1019.6 1019.6 0.0
31/01:00pm 12.0 8.9 3.5 56 3.8 SSW 9 15 5 8 1019.9 1019.9 0.0
31/12:30pm 11.7 9.2 4.0 59 3.4 S 6 11 3 6 1020.4 1020.4 0.0
31/12:00pm 12.0 9.5 3.8 57 3.6 SSW 6 11 3 6 1020.9 1020.9 0.0
31/11:30am 12.0 8.7 4.5 60 3.4 SSE 11 17 6 9 1021.1 1021.1 0.0
31/11:00am 11.4 8.3 3.4 58 3.5 S 9 13 5 7 1021.3 1021.3 0.0
31/10:30am 11.2 7.4 3.7 60 3.3 SSW 13 19 7 10 1021.3 1021.3 0.0
31/10:00am 11.0 7.9 3.8 61 3.2 SSW 9 17 5 9 1021.4 1021.4 0.0
31/09:30am 10.4 6.8 5.0 69 2.4 W 13 17 7 9 1021.4 1021.4 0.0
31/09:00am 9.3 5.9 5.7 78 1.6 W 13 17 7 9 1021.5 1021.5 0.0
31/08:30am 8.5 4.7 5.8 83 1.2 W 15 20 8 11 1021.4 1021.4 0.0
31/08:00am 7.6 4.2 5.7 88 0.8 WNW 13 15 7 8 1021.3 1021.3 0.0
31/07:30am 7.0 3.9 5.5 90 0.7 NW 11 15 6 8 1021.2 1021.2 0.0
31/07:00am 6.5 3.3 5.1 91 0.6 WNW 11 15 6 8 1021.1 1021.1 0.0
31/06:30am 6.2 3.0 5.2 93 0.4 WNW 11 13 6 7 1021.1 1021.1 0.0
31/06:00am 6.0 2.7 4.5 90 0.6 W 11 11 6 6 1021.1 1021.1 0.0
31/05:30am 6.8 3.3 5.3 90 0.7 W 13 17 7 9 1021.1 1021.1 0.0
31/05:00am 7.1 3.6 5.6 90 0.7 W 13 20 7 11 1021.1 1021.1 0.0
31/04:30am 7.1 3.6 5.6 90 0.7 W 13 17 7 9 1021.0 1021.0 0.0
31/04:00am 7.0 3.5 5.5 90 0.7 W 13 17 7 9 1021.1 1021.1 0.0
31/03:30am 7.2 2.6 5.5 89 0.8 W 19 22 10 12 1021.1 1021.1 0.0
31/03:00am 7.0 3.2 5.6 91 0.6 W 15 20 8 11 1021.3 1021.3 0.0
31/02:30am 7.1 3.1 5.1 87 0.9 W 15 17 8 9 1021.6 1021.6 0.0
31/02:00am 7.1 4.4 5.6 90 0.7 W 9 11 5 6 1022.1 1022.1 0.0
31/01:30am 6.8 4.3 5.0 88 0.8 WNW 7 11 4 6 1022.3 1022.3 0.0
31/01:00am 6.6 3.7 4.6 87 0.9 WSW 9 13 5 7 1022.6 1022.6 0.0
31/12:30am 6.3 2.5 4.1 86 0.9 W 13 17 7 9 1022.7 1022.7 0.0
31/12:00am 7.0 3.4 4.8 86 1.0 WNW 13 15 7 8 1022.9 1022.9 0.0
 
Date/Time
EST
Temp
°C
App
Temp
°C
Dew
Point
Rel
Hum
%
Delta-T
°C
Wind Press
QNH
hPa
Press
MSL
hPa
Rain
since 9 am
mm
Dir
 
Spd
km/h
Gust
km/h
Spd
kts
Gust
kts
30/11:30pm 6.4 2.9 3.6 82 1.2 W 11 13 6 7 1023.2 1023.2 0.0
30/11:00pm 8.1 4.4 4.7 79 1.5 W 13 15 7 8 1023.3 1023.3 0.0
30/10:30pm 8.5 5.6 4.9 78 1.6 W 9 13 5 7 1023.5 1023.5 0.0
30/10:00pm 8.7 5.9 5.3 79 1.5 W 9 11 5 6 1023.8 1023.8 0.0
30/09:30pm 9.0 5.8 5.2 77 1.7 WSW 11 13 6 7 1023.9 1023.9 0.0
30/09:00pm 9.1 5.5 4.9 75 1.9 WSW 13 17 7 9 1024.0 1024.0 0.0
30/08:30pm 9.0 6.3 5.4 78 1.6 WSW 9 13 5 7 1024.0 1024.0 0.0
30/08:00pm 9.0 5.9 5.4 78 1.6 SW 11 19 6 10 1023.8 1023.8 0.0
30/07:30pm 8.5 5.8 5.6 82 1.3 SSW 9 11 5 6 1023.8 1023.8 0.0
30/07:00pm 8.6 4.3 5.4 80 1.4 SSW 17 22 9 12 1023.7 1023.7 0.0
30/06:30pm 9.5 4.6 5.3 75 1.9 SSW 20 26 11 14 1023.8 1023.8 0.0
30/06:00pm 9.3 5.0 5.1 75 1.9 S 17 20 9 11 1023.4 1023.4 0.0
30/05:30pm 9.9 4.5 4.7 70 2.3 S 22 28 12 15 1023.3 1023.3 0.0
30/05:00pm 10.8 5.9 5.1 68 2.6 S 20 24 11 13 1023.2 1023.2 0.0
30/04:30pm 11.2 6.8 4.9 65 2.9 S 17 22 9 12 1023.3 1023.3 0.0
30/04:00pm 11.9 7.1 4.6 61 3.3 S 19 24 10 13 1023.4 1023.4 0.0
30/03:30pm 11.8 6.4 4.5 61 3.3 S 22 28 12 15 1023.5 1023.5 0.0
30/03:00pm 11.7 5.7 5.1 64 3.0 SSW 26 33 14 18 1023.5 1023.5 0.0
30/02:30pm 12.3 6.8 5.7 64 3.1 SSW 24 32 13 17 1023.6 1023.6 0.0
30/02:00pm 12.6 6.6 5.5 62 3.3 SSW 26 35 14 19 1023.7 1023.7 0.0
30/01:30pm 12.8 6.4 5.0 59 3.6 SSW 28 35 15 19 1023.8 1023.8 0.0
30/01:00pm 12.7 6.7 5.1 60 3.5 SSW 26 33 14 18 1024.1 1024.1 0.0
30/12:30pm 12.6 6.6 5.5 62 3.3 SSW 26 33 14 18 1024.5 1024.5 0.0
30/12:00pm 12.5 6.2 5.7 63 3.2 SSW 28 37 15 20 1024.9 1024.9 0.0
30/11:30am 12.1 5.8 5.7 65 3.0 SSW 28 35 15 19 1025.2 1025.2 0.0
30/11:00am 11.3 4.5 5.0 65 2.9 SSW 30 35 16 19 1025.4 1025.4 0.0
30/10:30am 11.8 5.6 6.1 68 2.7 SSW 28 35 15 19 1025.4 1025.4 0.0
30/10:00am 10.9 5.5 6.5 74 2.1 SSW 24 32 13 17 1025.6 1025.6 0.0
30/09:30am 9.8 5.9 6.9 82 1.4 WSW 17 24 9 13 1025.7 1025.7 0.0
30/09:00am 8.9 5.8 7.4 90 0.7 W 13 17 7 9 1025.8 1025.8 0.4
30/08:30am 8.7 4.8 7.2 90 0.7 W 17 24 9 13 1025.8 1025.8 0.4
30/08:00am 8.4 4.5 7.2 92 0.6 W 17 22 9 12 1025.7 1025.7 0.4
30/07:30am 8.1 4.9 7.0 93 0.5 W 13 20 7 11 1025.4 1025.4 0.4
30/07:00am 7.9 3.9 6.8 93 0.5 W 17 24 9 13 1025.0 1025.0 0.4
30/06:30am 7.9 4.3 6.8 93 0.5 W 15 19 8 10 1024.8 1024.8 0.4
30/06:00am 7.8 5.0 7.1 95 0.3 W 11 17 6 9 1024.6 1024.6 0.4
30/05:30am 7.7 4.6 7.1 96 0.3 W 13 17 7 9 1024.5 1024.5 0.4
30/05:00am 7.7 4.2 7.3 97 0.2 W 15 19 8 10 1024.5 1024.5 0.4
30/04:30am 7.6 3.7 7.2 97 0.2 W 17 20 9 11 1024.4 1024.4 0.4
30/04:00am 7.8 4.3 7.2 96 0.3 W 15 22 8 12 1024.5 1024.5 0.4
30/03:30am 7.8 4.0 7.4 97 0.2 W 17 20 9 11 1024.6 1024.6 0.4
30/03:00am 7.7 3.9 7.4 98 0.1 W 17 20 9 11 1024.9 1024.9 0.4
30/02:30am 7.7 3.8 7.3 97 0.2 W 17 20 9 11 1025.0 1025.0 0.4
30/02:00am 7.9 4.5 7.5 97 0.2 W 15 20 8 11 1025.3 1025.3 0.4
30/01:51am 8.0 3.8 7.6 97 0.2 W 19 24 10 13 1025.3 1025.3 0.4
30/01:39am 8.1 4.3 7.7 97 0.2 W 17 20 9 11 1025.3 1025.3 0.4
30/01:30am 8.0 5.0 7.6 97 0.2 W 13 17 7 9 1025.5 1025.5 0.4
30/01:00am 7.9 4.8 7.3 96 0.3 WSW 13 19 7 10 1025.8 1025.8 0.4
30/12:30am 8.1 5.4 7.5 96 0.3 WSW 11 17 6 9 1025.9 1025.9 0.4
30/12:00am 8.1 4.3 7.7 97 0.2 WSW 17 26 9 14 1026.0 1026.0 0.4
 
Date/Time
EST
Temp
°C
App
Temp
°C
Dew
Point
Rel
Hum
%
Delta-T
°C
Wind Press
QNH
hPa
Press
MSL
hPa
Rain
since 9 am
mm
Dir
 
Spd
km/h
Gust
km/h
Spd
kts
Gust
kts
29/11:30pm 8.3 5.0 7.9 97 0.2 W 15 20 8 11 1026.2 1026.2 0.4
29/11:00pm 8.5 5.6 8.1 97 0.2 W 13 20 7 11 1026.4 1026.4 0.4
29/10:30pm 8.8 5.5 8.2 96 0.3 WSW 15 19 8 10 1026.6 1026.6 0.4
29/10:00pm 9.0 5.3 7.8 92 0.6 SW 17 24 9 13 1026.6 1026.6 0.2
29/09:30pm 9.0 5.3 7.8 92 0.6 WSW 17 26 9 14 1026.4 1026.4 0.2
29/09:00pm 9.3 5.2 7.7 90 0.8 SW 19 26 10 14 1026.3 1026.3 0.2
29/08:30pm 9.3 5.1 8.1 92 0.6 SW 20 26 11 14 1026.2 1026.2 0.2

Other Formats:

Comma delimited format used in spreadsheet applications
http://www.bom.gov.au/fwo/IDV60801/IDV60801.94854.axf

JavaScript Object Notation format (JSON) in row-major order
http://www.bom.gov.au/fwo/IDV60801/IDV60801.94854.json